sensor_id;sensor_type;location;lat;lon;timestamp;temperature;humidity
16200;DHT22;8207;52.494;4.654;2023-05-19T00:02:07;9.50;99.90
16200;DHT22;8207;52.494;4.654;2023-05-19T00:04:34;9.50;99.90
16200;DHT22;8207;52.494;4.654;2023-05-19T00:07:02;9.50;99.90
16200;DHT22;8207;52.494;4.654;2023-05-19T00:09:32;9.50;99.90
16200;DHT22;8207;52.494;4.654;2023-05-19T00:11:59;9.50;99.90
16200;DHT22;8207;52.494;4.654;2023-05-19T00:14:26;9.50;99.90
16200;DHT22;8207;52.494;4.654;2023-05-19T00:16:54;9.50;99.90
16200;DHT22;8207;52.494;4.654;2023-05-19T00:19:22;9.50;99.90
16200;DHT22;8207;52.494;4.654;2023-05-19T00:21:50;9.50;99.90
16200;DHT22;8207;52.494;4.654;2023-05-19T00:24:16;9.50;99.90
16200;DHT22;8207;52.494;4.654;2023-05-19T00:26:45;9.50;99.90
16200;DHT22;8207;52.494;4.654;2023-05-19T00:29:12;9.50;99.90
16200;DHT22;8207;52.494;4.654;2023-05-19T00:31:42;9.50;99.90
16200;DHT22;8207;52.494;4.654;2023-05-19T00:34:09;9.50;99.90
16200;DHT22;8207;52.494;4.654;2023-05-19T00:36:36;9.50;99.90
16200;DHT22;8207;52.494;4.654;2023-05-19T00:39:03;9.50;99.90
16200;DHT22;8207;52.494;4.654;2023-05-19T00:41:30;9.50;99.90
16200;DHT22;8207;52.494;4.654;2023-05-19T00:43:58;9.40;99.90
16200;DHT22;8207;52.494;4.654;2023-05-19T00:46:25;9.40;99.90
16200;DHT22;8207;52.494;4.654;2023-05-19T00:48:52;9.40;99.90
16200;DHT22;8207;52.494;4.654;2023-05-19T00:51:19;9.40;99.90
16200;DHT22;8207;52.494;4.654;2023-05-19T00:53:47;9.30;99.90
16200;DHT22;8207;52.494;4.654;2023-05-19T00:56:16;9.30;99.90
16200;DHT22;8207;52.494;4.654;2023-05-19T00:58:44;9.30;99.90
16200;DHT22;8207;52.494;4.654;2023-05-19T01:01:12;9.30;99.90
16200;DHT22;8207;52.494;4.654;2023-05-19T01:03:43;9.20;99.90
16200;DHT22;8207;52.494;4.654;2023-05-19T01:06:11;9.20;99.90
16200;DHT22;8207;52.494;4.654;2023-05-19T01:08:39;9.20;99.90
16200;DHT22;8207;52.494;4.654;2023-05-19T01:11:06;9.20;99.90
16200;DHT22;8207;52.494;4.654;2023-05-19T01:13:34;9.10;99.90
16200;DHT22;8207;52.494;4.654;2023-05-19T01:16:06;9.10;99.90
16200;DHT22;8207;52.494;4.654;2023-05-19T01:18:45;9.00;99.90
16200;DHT22;8207;52.494;4.654;2023-05-19T01:24:29;8.90;99.90
16200;DHT22;8207;52.494;4.654;2023-05-19T01:27:21;8.90;99.90
16200;DHT22;8207;52.494;4.654;2023-05-19T01:30:14;8.90;99.90
16200;DHT22;8207;52.494;4.654;2023-05-19T01:32:43;8.80;99.90
16200;DHT22;8207;52.494;4.654;2023-05-19T01:35:11;8.70;99.90
16200;DHT22;8207;52.494;4.654;2023-05-19T01:37:41;8.70;99.90
16200;DHT22;8207;52.494;4.654;2023-05-19T01:40:10;8.70;99.90
16200;DHT22;8207;52.494;4.654;2023-05-19T01:42:37;8.60;99.90
16200;DHT22;8207;52.494;4.654;2023-05-19T01:45:07;8.60;99.90
16200;DHT22;8207;52.494;4.654;2023-05-19T01:47:40;8.60;99.90
16200;DHT22;8207;52.494;4.654;2023-05-19T01:50:08;8.50;99.90
16200;DHT22;8207;52.494;4.654;2023-05-19T01:52:35;8.50;99.90
16200;DHT22;8207;52.494;4.654;2023-05-19T01:55:02;8.50;99.90
16200;DHT22;8207;52.494;4.654;2023-05-19T01:57:35;8.50;99.90
16200;DHT22;8207;52.494;4.654;2023-05-19T02:00:11;8.50;99.90
16200;DHT22;8207;52.494;4.654;2023-05-19T02:02:51;8.50;99.90
16200;DHT22;8207;52.494;4.654;2023-05-19T02:05:25;8.50;99.90
16200;DHT22;8207;52.494;4.654;2023-05-19T02:07:58;8.40;99.90
16200;DHT22;8207;52.494;4.654;2023-05-19T02:10:28;8.40;99.90
16200;DHT22;8207;52.494;4.654;2023-05-19T02:12:59;8.40;99.90
16200;DHT22;8207;52.494;4.654;2023-05-19T02:15:31;8.40;99.90
16200;DHT22;8207;52.494;4.654;2023-05-19T02:18:01;8.30;99.90
16200;DHT22;8207;52.494;4.654;2023-05-19T02:20:29;8.30;99.90
16200;DHT22;8207;52.494;4.654;2023-05-19T02:22:56;8.30;99.90
16200;DHT22;8207;52.494;4.654;2023-05-19T02:25:23;8.30;99.90
16200;DHT22;8207;52.494;4.654;2023-05-19T02:27:51;8.20;99.90
16200;DHT22;8207;52.494;4.654;2023-05-19T02:30:17;8.10;99.90
16200;DHT22;8207;52.494;4.654;2023-05-19T02:32:44;8.10;99.90
16200;DHT22;8207;52.494;4.654;2023-05-19T02:35:13;8.10;99.90
16200;DHT22;8207;52.494;4.654;2023-05-19T02:37:40;8.10;99.90
16200;DHT22;8207;52.494;4.654;2023-05-19T02:40:08;8.00;99.90
16200;DHT22;8207;52.494;4.654;2023-05-19T02:42:35;8.10;99.90
16200;DHT22;8207;52.494;4.654;2023-05-19T02:45:03;8.00;99.90
16200;DHT22;8207;52.494;4.654;2023-05-19T02:47:30;8.00;99.90
16200;DHT22;8207;52.494;4.654;2023-05-19T02:49:57;8.00;99.90
16200;DHT22;8207;52.494;4.654;2023-05-19T02:52:25;8.00;99.90
16200;DHT22;8207;52.494;4.654;2023-05-19T02:54:52;8.00;99.90
16200;DHT22;8207;52.494;4.654;2023-05-19T02:57:19;8.00;99.90
16200;DHT22;8207;52.494;4.654;2023-05-19T02:59:46;8.00;99.90
16200;DHT22;8207;52.494;4.654;2023-05-19T03:02:13;8.00;99.90
16200;DHT22;8207;52.494;4.654;2023-05-19T03:04:40;8.00;99.90
16200;DHT22;8207;52.494;4.654;2023-05-19T03:07:07;8.00;99.90
16200;DHT22;8207;52.494;4.654;2023-05-19T03:09:37;8.00;99.90
16200;DHT22;8207;52.494;4.654;2023-05-19T03:12:04;8.00;99.90
16200;DHT22;8207;52.494;4.654;2023-05-19T03:14:32;8.00;99.90
16200;DHT22;8207;52.494;4.654;2023-05-19T03:16:59;8.00;99.90
16200;DHT22;8207;52.494;4.654;2023-05-19T03:19:26;8.00;99.90
16200;DHT22;8207;52.494;4.654;2023-05-19T03:21:53;8.00;99.90
16200;DHT22;8207;52.494;4.654;2023-05-19T03:24:21;8.00;99.90
16200;DHT22;8207;52.494;4.654;2023-05-19T03:26:49;8.00;99.90
16200;DHT22;8207;52.494;4.654;2023-05-19T03:29:16;8.00;99.90
16200;DHT22;8207;52.494;4.654;2023-05-19T03:31:43;8.00;99.90
16200;DHT22;8207;52.494;4.654;2023-05-19T03:34:10;8.00;99.90
16200;DHT22;8207;52.494;4.654;2023-05-19T03:36:37;8.00;99.90
16200;DHT22;8207;52.494;4.654;2023-05-19T03:39:04;8.00;99.90
16200;DHT22;8207;52.494;4.654;2023-05-19T03:41:31;8.00;99.90
16200;DHT22;8207;52.494;4.654;2023-05-19T03:43:59;8.00;99.90
16200;DHT22;8207;52.494;4.654;2023-05-19T03:46:26;8.00;99.90
16200;DHT22;8207;52.494;4.654;2023-05-19T03:48:53;8.00;99.90
16200;DHT22;8207;52.494;4.654;2023-05-19T03:51:20;7.90;99.90
16200;DHT22;8207;52.494;4.654;2023-05-19T03:53:47;8.00;99.90
16200;DHT22;8207;52.494;4.654;2023-05-19T03:56:14;7.90;99.90
16200;DHT22;8207;52.494;4.654;2023-05-19T03:58:42;7.90;99.90
16200;DHT22;8207;52.494;4.654;2023-05-19T04:01:12;7.90;99.90
16200;DHT22;8207;52.494;4.654;2023-05-19T04:03:39;7.90;99.90
16200;DHT22;8207;52.494;4.654;2023-05-19T04:06:07;7.90;99.90
16200;DHT22;8207;52.494;4.654;2023-05-19T04:08:34;7.90;99.90
16200;DHT22;8207;52.494;4.654;2023-05-19T04:11:00;7.90;99.90
16200;DHT22;8207;52.494;4.654;2023-05-19T04:13:27;8.00;99.90
16200;DHT22;8207;52.494;4.654;2023-05-19T04:15:54;8.00;99.90
16200;DHT22;8207;52.494;4.654;2023-05-19T04:18:23;8.00;99.90
16200;DHT22;8207;52.494;4.654;2023-05-19T04:20:49;8.00;99.90
16200;DHT22;8207;52.494;4.654;2023-05-19T04:23:16;8.00;99.90
16200;DHT22;8207;52.494;4.654;2023-05-19T04:25:43;8.10;99.90
16200;DHT22;8207;52.494;4.654;2023-05-19T04:28:13;8.10;99.90
16200;DHT22;8207;52.494;4.654;2023-05-19T04:30:40;8.10;99.90
16200;DHT22;8207;52.494;4.654;2023-05-19T04:33:07;8.10;99.90
16200;DHT22;8207;52.494;4.654;2023-05-19T04:35:36;8.20;99.90
16200;DHT22;8207;52.494;4.654;2023-05-19T04:38:04;8.20;99.90
16200;DHT22;8207;52.494;4.654;2023-05-19T04:40:31;8.30;99.90
16200;DHT22;8207;52.494;4.654;2023-05-19T04:42:58;8.30;99.90
16200;DHT22;8207;52.494;4.654;2023-05-19T04:45:26;8.40;99.90
16200;DHT22;8207;52.494;4.654;2023-05-19T04:47:53;8.40;99.90
16200;DHT22;8207;52.494;4.654;2023-05-19T04:50:22;8.50;99.90
16200;DHT22;8207;52.494;4.654;2023-05-19T04:52:51;8.50;99.90
16200;DHT22;8207;52.494;4.654;2023-05-19T04:55:17;8.60;99.90
16200;DHT22;8207;52.494;4.654;2023-05-19T04:57:44;8.60;99.90
16200;DHT22;8207;52.494;4.654;2023-05-19T05:00:12;8.70;99.90
16200;DHT22;8207;52.494;4.654;2023-05-19T05:02:39;8.80;99.90
16200;DHT22;8207;52.494;4.654;2023-05-19T05:05:08;8.80;99.90
16200;DHT22;8207;52.494;4.654;2023-05-19T05:07:35;8.90;99.90
16200;DHT22;8207;52.494;4.654;2023-05-19T05:10:05;9.00;99.90
16200;DHT22;8207;52.494;4.654;2023-05-19T05:12:33;9.10;99.90
16200;DHT22;8207;52.494;4.654;2023-05-19T05:15:00;9.20;99.90
16200;DHT22;8207;52.494;4.654;2023-05-19T05:17:28;9.20;99.90
16200;DHT22;8207;52.494;4.654;2023-05-19T05:19:55;9.30;99.90
16200;DHT22;8207;52.494;4.654;2023-05-19T05:22:23;9.40;99.90
16200;DHT22;8207;52.494;4.654;2023-05-19T05:24:50;9.50;99.90
16200;DHT22;8207;52.494;4.654;2023-05-19T05:27:19;9.70;99.90
16200;DHT22;8207;52.494;4.654;2023-05-19T05:29:46;9.90;99.90
16200;DHT22;8207;52.494;4.654;2023-05-19T05:32:14;10.20;99.90
16200;DHT22;8207;52.494;4.654;2023-05-19T05:34:41;10.50;99.90
16200;DHT22;8207;52.494;4.654;2023-05-19T05:37:08;10.80;99.90
16200;DHT22;8207;52.494;4.654;2023-05-19T05:39:35;11.10;99.90
16200;DHT22;8207;52.494;4.654;2023-05-19T05:42:02;11.30;99.90
16200;DHT22;8207;52.494;4.654;2023-05-19T05:44:30;11.50;99.90
16200;DHT22;8207;52.494;4.654;2023-05-19T05:47:00;11.70;99.90
16200;DHT22;8207;52.494;4.654;2023-05-19T05:49:28;11.90;99.90
16200;DHT22;8207;52.494;4.654;2023-05-19T05:51:55;12.20;99.90
16200;DHT22;8207;52.494;4.654;2023-05-19T05:54:23;12.30;99.90
16200;DHT22;8207;52.494;4.654;2023-05-19T05:56:51;12.60;99.90
16200;DHT22;8207;52.494;4.654;2023-05-19T05:59:18;12.90;99.90
16200;DHT22;8207;52.494;4.654;2023-05-19T06:01:46;13.10;99.90
16200;DHT22;8207;52.494;4.654;2023-05-19T06:04:13;13.40;99.90
16200;DHT22;8207;52.494;4.654;2023-05-19T06:06:40;13.70;99.90
16200;DHT22;8207;52.494;4.654;2023-05-19T06:09:07;13.90;99.90
16200;DHT22;8207;52.494;4.654;2023-05-19T06:11:33;14.20;99.90
16200;DHT22;8207;52.494;4.654;2023-05-19T06:14:01;14.40;99.90
16200;DHT22;8207;52.494;4.654;2023-05-19T06:16:28;14.60;99.90
16200;DHT22;8207;52.494;4.654;2023-05-19T06:19:03;14.60;99.90
16200;DHT22;8207;52.494;4.654;2023-05-19T06:21:30;14.90;99.90
16200;DHT22;8207;52.494;4.654;2023-05-19T06:23:57;15.10;99.90
16200;DHT22;8207;52.494;4.654;2023-05-19T06:26:24;15.20;99.90
16200;DHT22;8207;52.494;4.654;2023-05-19T06:28:51;15.30;99.90
16200;DHT22;8207;52.494;4.654;2023-05-19T06:31:18;15.30;99.90
16200;DHT22;8207;52.494;4.654;2023-05-19T06:33:45;15.20;99.90
16200;DHT22;8207;52.494;4.654;2023-05-19T06:36:13;15.30;99.90
16200;DHT22;8207;52.494;4.654;2023-05-19T06:38:40;15.30;99.90
16200;DHT22;8207;52.494;4.654;2023-05-19T06:41:07;15.30;99.90
16200;DHT22;8207;52.494;4.654;2023-05-19T06:43:34;15.40;99.90
16200;DHT22;8207;52.494;4.654;2023-05-19T06:46:01;15.30;99.90
16200;DHT22;8207;52.494;4.654;2023-05-19T06:48:28;15.20;99.90
16200;DHT22;8207;52.494;4.654;2023-05-19T06:50:55;15.10;99.90
16200;DHT22;8207;52.494;4.654;2023-05-19T06:53:24;15.20;99.90
16200;DHT22;8207;52.494;4.654;2023-05-19T06:55:50;15.40;99.90
16200;DHT22;8207;52.494;4.654;2023-05-19T06:58:18;15.60;99.90
16200;DHT22;8207;52.494;4.654;2023-05-19T07:00:44;15.60;99.90
16200;DHT22;8207;52.494;4.654;2023-05-19T07:03:11;15.70;99.90
16200;DHT22;8207;52.494;4.654;2023-05-19T07:05:38;15.90;99.90
16200;DHT22;8207;52.494;4.654;2023-05-19T07:08:05;15.80;99.90
16200;DHT22;8207;52.494;4.654;2023-05-19T07:10:34;15.90;99.90
16200;DHT22;8207;52.494;4.654;2023-05-19T07:13:01;16.00;99.90
16200;DHT22;8207;52.494;4.654;2023-05-19T07:15:28;16.20;99.90
16200;DHT22;8207;52.494;4.654;2023-05-19T07:17:57;16.30;99.90
16200;DHT22;8207;52.494;4.654;2023-05-19T07:20:24;16.40;99.90
16200;DHT22;8207;52.494;4.654;2023-05-19T07:22:51;16.50;99.90
16200;DHT22;8207;52.494;4.654;2023-05-19T07:25:18;16.90;99.90
16200;DHT22;8207;52.494;4.654;2023-05-19T07:27:47;16.80;99.90
16200;DHT22;8207;52.494;4.654;2023-05-19T07:30:13;17.00;99.90
16200;DHT22;8207;52.494;4.654;2023-05-19T07:32:40;17.20;99.90
16200;DHT22;8207;52.494;4.654;2023-05-19T07:35:07;17.20;99.90
16200;DHT22;8207;52.494;4.654;2023-05-19T07:37:34;17.30;99.90
16200;DHT22;8207;52.494;4.654;2023-05-19T07:40:01;17.50;99.90
16200;DHT22;8207;52.494;4.654;2023-05-19T07:42:28;17.50;99.90
16200;DHT22;8207;52.494;4.654;2023-05-19T07:44:57;17.70;99.90
16200;DHT22;8207;52.494;4.654;2023-05-19T07:47:23;18.00;99.90
16200;DHT22;8207;52.494;4.654;2023-05-19T07:49:50;18.10;99.90
16200;DHT22;8207;52.494;4.654;2023-05-19T07:52:17;18.20;99.90
16200;DHT22;8207;52.494;4.654;2023-05-19T07:54:45;18.30;99.90
16200;DHT22;8207;52.494;4.654;2023-05-19T07:57:12;18.50;99.90
16200;DHT22;8207;52.494;4.654;2023-05-19T07:59:39;18.70;99.90
16200;DHT22;8207;52.494;4.654;2023-05-19T08:02:07;18.80;99.90
16200;DHT22;8207;52.494;4.654;2023-05-19T08:04:34;18.80;81.30
16200;DHT22;8207;52.494;4.654;2023-05-19T08:07:01;18.60;35.70
16200;DHT22;8207;52.494;4.654;2023-05-19T08:09:29;18.80;1.00
16200;DHT22;8207;52.494;4.654;2023-05-19T08:11:55;18.60;1.00
16200;DHT22;8207;52.494;4.654;2023-05-19T08:14:22;18.50;1.00
16200;DHT22;8207;52.494;4.654;2023-05-19T08:16:49;18.40;1.00
16200;DHT22;8207;52.494;4.654;2023-05-19T08:19:17;18.60;1.00
16200;DHT22;8207;52.494;4.654;2023-05-19T08:21:44;18.70;1.00
16200;DHT22;8207;52.494;4.654;2023-05-19T08:24:12;18.70;1.00
16200;DHT22;8207;52.494;4.654;2023-05-19T08:26:39;19.00;1.00
16200;DHT22;8207;52.494;4.654;2023-05-19T08:29:06;19.00;1.00
16200;DHT22;8207;52.494;4.654;2023-05-19T08:31:33;19.20;1.00
16200;DHT22;8207;52.494;4.654;2023-05-19T08:34:00;19.30;1.00
16200;DHT22;8207;52.494;4.654;2023-05-19T08:36:29;19.50;1.00
16200;DHT22;8207;52.494;4.654;2023-05-19T08:38:56;19.30;99.90
16200;DHT22;8207;52.494;4.654;2023-05-19T08:41:23;19.50;99.90
16200;DHT22;8207;52.494;4.654;2023-05-19T08:43:51;19.70;99.90
16200;DHT22;8207;52.494;4.654;2023-05-19T08:46:18;19.90;1.00
16200;DHT22;8207;52.494;4.654;2023-05-19T08:48:47;20.00;99.90
16200;DHT22;8207;52.494;4.654;2023-05-19T08:51:22;19.90;1.00
16200;DHT22;8207;52.494;4.654;2023-05-19T08:53:55;20.20;99.90
16200;DHT22;8207;52.494;4.654;2023-05-19T08:56:24;20.30;99.90
16200;DHT22;8207;52.494;4.654;2023-05-19T08:58:53;20.20;99.90
16200;DHT22;8207;52.494;4.654;2023-05-19T09:01:21;20.00;99.90
16200;DHT22;8207;52.494;4.654;2023-05-19T09:03:49;20.20;99.90
16200;DHT22;8207;52.494;4.654;2023-05-19T09:06:16;20.20;99.90
16200;DHT22;8207;52.494;4.654;2023-05-19T09:08:43;20.50;99.90
16200;DHT22;8207;52.494;4.654;2023-05-19T09:11:12;20.40;99.90
16200;DHT22;8207;52.494;4.654;2023-05-19T09:13:40;20.30;99.90
16200;DHT22;8207;52.494;4.654;2023-05-19T09:16:07;20.60;99.90
16200;DHT22;8207;52.494;4.654;2023-05-19T09:18:33;20.60;99.90
16200;DHT22;8207;52.494;4.654;2023-05-19T09:21:05;20.40;99.90
16200;DHT22;8207;52.494;4.654;2023-05-19T09:23:32;20.40;99.90
16200;DHT22;8207;52.494;4.654;2023-05-19T09:26:01;20.30;99.90
16200;DHT22;8207;52.494;4.654;2023-05-19T09:28:32;20.40;99.90
16200;DHT22;8207;52.494;4.654;2023-05-19T09:31:00;20.60;99.90
16200;DHT22;8207;52.494;4.654;2023-05-19T09:33:27;20.80;99.90
16200;DHT22;8207;52.494;4.654;2023-05-19T09:35:56;20.80;99.90
16200;DHT22;8207;52.494;4.654;2023-05-19T09:38:24;20.60;99.90
16200;DHT22;8207;52.494;4.654;2023-05-19T09:40:52;20.70;99.90
16200;DHT22;8207;52.494;4.654;2023-05-19T09:43:20;20.60;99.90
16200;DHT22;8207;52.494;4.654;2023-05-19T09:45:54;20.40;99.90
16200;DHT22;8207;52.494;4.654;2023-05-19T09:48:21;20.70;99.90
16200;DHT22;8207;52.494;4.654;2023-05-19T09:50:48;20.80;99.90
16200;DHT22;8207;52.494;4.654;2023-05-19T09:53:16;20.50;99.90
16200;DHT22;8207;52.494;4.654;2023-05-19T09:55:43;20.70;99.90
16200;DHT22;8207;52.494;4.654;2023-05-19T09:58:15;20.80;99.90
16200;DHT22;8207;52.494;4.654;2023-05-19T10:00:43;20.50;99.90
16200;DHT22;8207;52.494;4.654;2023-05-19T10:03:12;20.60;99.90
16200;DHT22;8207;52.494;4.654;2023-05-19T10:05:39;20.40;99.90
16200;DHT22;8207;52.494;4.654;2023-05-19T10:08:08;20.40;99.90
16200;DHT22;8207;52.494;4.654;2023-05-19T10:10:36;20.60;99.90
16200;DHT22;8207;52.494;4.654;2023-05-19T10:13:04;20.80;99.90
16200;DHT22;8207;52.494;4.654;2023-05-19T10:15:31;20.90;99.90
16200;DHT22;8207;52.494;4.654;2023-05-19T10:17:59;20.80;99.90
16200;DHT22;8207;52.494;4.654;2023-05-19T10:20:30;20.80;99.90
16200;DHT22;8207;52.494;4.654;2023-05-19T10:22:57;20.50;99.90
16200;DHT22;8207;52.494;4.654;2023-05-19T10:25:24;20.20;99.90
16200;DHT22;8207;52.494;4.654;2023-05-19T10:27:54;20.60;99.90
16200;DHT22;8207;52.494;4.654;2023-05-19T10:30:25;20.80;99.90
16200;DHT22;8207;52.494;4.654;2023-05-19T10:32:54;20.90;99.90
16200;DHT22;8207;52.494;4.654;2023-05-19T10:38:26;21.00;99.90
16200;DHT22;8207;52.494;4.654;2023-05-19T10:41:01;20.90;99.90
16200;DHT22;8207;52.494;4.654;2023-05-19T10:43:48;20.70;99.90
16200;DHT22;8207;52.494;4.654;2023-05-19T10:46:16;20.60;99.90
16200;DHT22;8207;52.494;4.654;2023-05-19T10:48:44;20.30;99.90
16200;DHT22;8207;52.494;4.654;2023-05-19T10:51:13;20.30;99.90
16200;DHT22;8207;52.494;4.654;2023-05-19T10:53:41;20.40;99.90
16200;DHT22;8207;52.494;4.654;2023-05-19T10:56:11;20.60;99.90
16200;DHT22;8207;52.494;4.654;2023-05-19T10:58:53;20.50;99.90
16200;DHT22;8207;52.494;4.654;2023-05-19T11:01:20;20.90;99.90
16200;DHT22;8207;52.494;4.654;2023-05-19T11:03:50;20.90;99.90
16200;DHT22;8207;52.494;4.654;2023-05-19T11:06:31;21.10;99.90
16200;DHT22;8207;52.494;4.654;2023-05-19T11:09:00;21.00;99.90
16200;DHT22;8207;52.494;4.654;2023-05-19T11:11:44;21.00;99.90
16200;DHT22;8207;52.494;4.654;2023-05-19T11:14:11;20.90;99.90
16200;DHT22;8207;52.494;4.654;2023-05-19T11:16:39;20.90;99.90
16200;DHT22;8207;52.494;4.654;2023-05-19T11:19:07;20.80;99.90
16200;DHT22;8207;52.494;4.654;2023-05-19T11:21:46;21.30;99.90
16200;DHT22;8207;52.494;4.654;2023-05-19T11:24:33;21.50;99.90
16200;DHT22;8207;52.494;4.654;2023-05-19T11:27:24;21.30;99.90
16200;DHT22;8207;52.494;4.654;2023-05-19T11:29:53;21.30;99.90
16200;DHT22;8207;52.494;4.654;2023-05-19T11:32:21;21.00;99.90
16200;DHT22;8207;52.494;4.654;2023-05-19T11:34:51;20.90;99.90
16200;DHT22;8207;52.494;4.654;2023-05-19T11:37:22;20.80;99.90
16200;DHT22;8207;52.494;4.654;2023-05-19T11:39:49;20.70;99.90
16200;DHT22;8207;52.494;4.654;2023-05-19T11:42:16;20.70;99.90
16200;DHT22;8207;52.494;4.654;2023-05-19T11:44:43;20.70;99.90
16200;DHT22;8207;52.494;4.654;2023-05-19T11:47:11;20.40;99.90
16200;DHT22;8207;52.494;4.654;2023-05-19T11:49:42;20.30;99.90
16200;DHT22;8207;52.494;4.654;2023-05-19T11:52:09;20.00;99.90
16200;DHT22;8207;52.494;4.654;2023-05-19T11:54:37;19.90;99.90
16200;DHT22;8207;52.494;4.654;2023-05-19T11:57:07;20.30;99.90
16200;DHT22;8207;52.494;4.654;2023-05-19T11:59:35;20.50;99.90
16200;DHT22;8207;52.494;4.654;2023-05-19T12:02:17;20.60;99.90
16200;DHT22;8207;52.494;4.654;2023-05-19T12:04:44;20.60;99.90
16200;DHT22;8207;52.494;4.654;2023-05-19T12:07:12;20.50;99.90
16200;DHT22;8207;52.494;4.654;2023-05-19T12:09:44;20.70;99.90
16200;DHT22;8207;52.494;4.654;2023-05-19T12:12:12;20.90;99.90
16200;DHT22;8207;52.494;4.654;2023-05-19T12:14:39;20.90;99.90
16200;DHT22;8207;52.494;4.654;2023-05-19T12:17:11;21.10;99.90
16200;DHT22;8207;52.494;4.654;2023-05-19T12:19:39;21.50;99.90
16200;DHT22;8207;52.494;4.654;2023-05-19T12:22:07;21.40;99.90
16200;DHT22;8207;52.494;4.654;2023-05-19T12:24:35;21.40;99.90
16200;DHT22;8207;52.494;4.654;2023-05-19T12:27:09;21.40;99.90
16200;DHT22;8207;52.494;4.654;2023-05-19T12:29:37;21.30;99.90
16200;DHT22;8207;52.494;4.654;2023-05-19T12:32:04;21.20;99.90
16200;DHT22;8207;52.494;4.654;2023-05-19T12:34:34;21.20;99.90
16200;DHT22;8207;52.494;4.654;2023-05-19T12:37:02;21.20;99.90
16200;DHT22;8207;52.494;4.654;2023-05-19T12:39:29;20.90;99.90
16200;DHT22;8207;52.494;4.654;2023-05-19T12:42:01;20.70;99.90
16200;DHT22;8207;52.494;4.654;2023-05-19T12:44:29;20.80;99.90
16200;DHT22;8207;52.494;4.654;2023-05-19T12:46:57;20.80;99.90
16200;DHT22;8207;52.494;4.654;2023-05-19T12:49:24;20.70;99.90
16200;DHT22;8207;52.494;4.654;2023-05-19T12:51:51;20.50;99.90
16200;DHT22;8207;52.494;4.654;2023-05-19T12:54:19;20.70;99.90
16200;DHT22;8207;52.494;4.654;2023-05-19T12:56:49;21.00;99.90
16200;DHT22;8207;52.494;4.654;2023-05-19T12:59:21;21.00;99.90
16200;DHT22;8207;52.494;4.654;2023-05-19T13:01:55;21.00;99.90
16200;DHT22;8207;52.494;4.654;2023-05-19T13:04:23;21.10;99.90
16200;DHT22;8207;52.494;4.654;2023-05-19T13:06:50;21.20;99.90
16200;DHT22;8207;52.494;4.654;2023-05-19T13:09:17;21.30;99.90
16200;DHT22;8207;52.494;4.654;2023-05-19T13:11:46;21.30;99.90
16200;DHT22;8207;52.494;4.654;2023-05-19T13:14:15;21.30;99.90
16200;DHT22;8207;52.494;4.654;2023-05-19T13:16:43;21.30;99.90
16200;DHT22;8207;52.494;4.654;2023-05-19T13:19:12;21.40;99.90
16200;DHT22;8207;52.494;4.654;2023-05-19T13:21:39;21.40;99.90
16200;DHT22;8207;52.494;4.654;2023-05-19T13:24:06;21.30;99.90
16200;DHT22;8207;52.494;4.654;2023-05-19T13:26:33;21.30;99.90
16200;DHT22;8207;52.494;4.654;2023-05-19T13:29:00;21.60;99.90
16200;DHT22;8207;52.494;4.654;2023-05-19T13:31:28;21.80;99.90
16200;DHT22;8207;52.494;4.654;2023-05-19T13:33:54;21.80;99.90
16200;DHT22;8207;52.494;4.654;2023-05-19T13:36:24;21.70;99.90
16200;DHT22;8207;52.494;4.654;2023-05-19T13:38:52;21.50;99.90
16200;DHT22;8207;52.494;4.654;2023-05-19T13:41:22;21.40;99.90
16200;DHT22;8207;52.494;4.654;2023-05-19T13:43:50;21.30;99.90
16200;DHT22;8207;52.494;4.654;2023-05-19T13:46:17;21.20;99.90
16200;DHT22;8207;52.494;4.654;2023-05-19T13:48:44;21.30;99.90
16200;DHT22;8207;52.494;4.654;2023-05-19T13:51:11;21.20;99.90
16200;DHT22;8207;52.494;4.654;2023-05-19T13:53:39;21.20;99.90
16200;DHT22;8207;52.494;4.654;2023-05-19T13:56:06;20.90;99.90
16200;DHT22;8207;52.494;4.654;2023-05-19T13:58:33;20.70;99.90
16200;DHT22;8207;52.494;4.654;2023-05-19T14:01:00;20.60;99.90
16200;DHT22;8207;52.494;4.654;2023-05-19T14:03:27;20.60;99.90
16200;DHT22;8207;52.494;4.654;2023-05-19T14:05:54;20.50;99.90
16200;DHT22;8207;52.494;4.654;2023-05-19T14:08:21;20.50;99.90
16200;DHT22;8207;52.494;4.654;2023-05-19T14:10:50;20.60;99.90
16200;DHT22;8207;52.494;4.654;2023-05-19T14:13:17;20.60;99.90
16200;DHT22;8207;52.494;4.654;2023-05-19T14:15:44;20.70;99.90
16200;DHT22;8207;52.494;4.654;2023-05-19T14:18:11;20.90;99.90
16200;DHT22;8207;52.494;4.654;2023-05-19T14:20:37;20.70;99.90
16200;DHT22;8207;52.494;4.654;2023-05-19T14:23:04;20.70;99.90
16200;DHT22;8207;52.494;4.654;2023-05-19T14:25:31;20.80;99.90
16200;DHT22;8207;52.494;4.654;2023-05-19T14:28:00;20.90;99.90
16200;DHT22;8207;52.494;4.654;2023-05-19T14:30:27;21.00;99.90
16200;DHT22;8207;52.494;4.654;2023-05-19T14:32:53;20.90;99.90
16200;DHT22;8207;52.494;4.654;2023-05-19T14:35:21;20.80;99.90
16200;DHT22;8207;52.494;4.654;2023-05-19T14:37:47;20.50;99.90
16200;DHT22;8207;52.494;4.654;2023-05-19T14:40:15;20.30;99.90
16200;DHT22;8207;52.494;4.654;2023-05-19T14:42:41;20.20;99.90
16200;DHT22;8207;52.494;4.654;2023-05-19T14:45:10;20.30;99.90
16200;DHT22;8207;52.494;4.654;2023-05-19T14:47:37;20.20;99.90
16200;DHT22;8207;52.494;4.654;2023-05-19T14:50:05;20.40;99.90
16200;DHT22;8207;52.494;4.654;2023-05-19T14:52:32;20.50;99.90
16200;DHT22;8207;52.494;4.654;2023-05-19T14:54:59;20.70;99.90
16200;DHT22;8207;52.494;4.654;2023-05-19T14:57:26;20.90;99.90
16200;DHT22;8207;52.494;4.654;2023-05-19T14:59:53;20.90;99.90
16200;DHT22;8207;52.494;4.654;2023-05-19T15:02:21;20.60;99.90
16200;DHT22;8207;52.494;4.654;2023-05-19T15:04:48;20.50;99.90
16200;DHT22;8207;52.494;4.654;2023-05-19T15:07:15;20.60;99.90
16200;DHT22;8207;52.494;4.654;2023-05-19T15:09:42;20.60;99.90
16200;DHT22;8207;52.494;4.654;2023-05-19T15:12:09;20.70;99.90
16200;DHT22;8207;52.494;4.654;2023-05-19T15:14:36;20.70;99.90
16200;DHT22;8207;52.494;4.654;2023-05-19T15:17:03;20.70;99.90
16200;DHT22;8207;52.494;4.654;2023-05-19T15:19:31;20.50;99.90
16200;DHT22;8207;52.494;4.654;2023-05-19T15:21:58;20.50;99.90
16200;DHT22;8207;52.494;4.654;2023-05-19T15:24:25;20.40;99.90
16200;DHT22;8207;52.494;4.654;2023-05-19T15:26:52;20.40;99.90
16200;DHT22;8207;52.494;4.654;2023-05-19T15:29:19;20.30;99.90
16200;DHT22;8207;52.494;4.654;2023-05-19T15:31:48;20.30;99.90
16200;DHT22;8207;52.494;4.654;2023-05-19T15:34:16;20.30;99.90
16200;DHT22;8207;52.494;4.654;2023-05-19T15:36:44;20.20;99.90
16200;DHT22;8207;52.494;4.654;2023-05-19T15:39:11;20.30;99.90
16200;DHT22;8207;52.494;4.654;2023-05-19T15:41:38;20.30;99.90
16200;DHT22;8207;52.494;4.654;2023-05-19T15:44:05;20.20;99.90
16200;DHT22;8207;52.494;4.654;2023-05-19T15:46:32;20.00;99.90
16200;DHT22;8207;52.494;4.654;2023-05-19T15:48:59;19.90;99.90
16200;DHT22;8207;52.494;4.654;2023-05-19T15:51:26;19.90;99.90
16200;DHT22;8207;52.494;4.654;2023-05-19T15:53:55;19.80;99.90
16200;DHT22;8207;52.494;4.654;2023-05-19T15:56:22;19.80;99.90
16200;DHT22;8207;52.494;4.654;2023-05-19T15:58:49;19.80;99.90
16200;DHT22;8207;52.494;4.654;2023-05-19T16:01:17;19.80;99.90
16200;DHT22;8207;52.494;4.654;2023-05-19T16:03:43;19.80;99.90
16200;DHT22;8207;52.494;4.654;2023-05-19T16:06:10;19.80;99.90